Terminal Aerodrome Forecast
Issued by NWS

Home | Current Version | Previous Version | Text Only | Print | Product List | Glossary On
Versions: 1 2 3 4 5 6 7 8 9 10 11 12 13 14 15 16 17 18 19 20 21
000
FTUS45 KSLC 251120
TAFEVW
TAF
KEVW 251120Z 2512/2612 23011KT 3SM BR BCFG BKN003 OVC020
     FM251600 25014G22KT 2SM -SHSN SCT009 BKN020
     FM252100 27016G24KT P6SM VCSH SCT020 BKN040
     FM260300 24009KT P6SM SCT040 BKN070=

USA.gov is the U.S. government's official web portal to all federal, state and local government web resources and services.